Time;durP1;ratioP1;P1;durP2;ratioP2;P2;SDS_P1;SDS_P2;PMS_P1;PMS_P2;Temp;Humidity;BMP_temperature;BMP_pressure;BME280_temperature;BME280_humidity;BME280_pressure;Samples;Min_cycle;Max_cycle;Signal;HPM_P1;HPM_P2
2022/12/26 00:02:08;;;;;;;16.15;2.60;;;9.70;99.90;;;;;;4984445;28;20075;-58
2022/12/26 00:04:35;;;;;;;15.73;2.35;;;9.70;99.90;;;;;;4984650;28;20119;-59
2022/12/26 00:07:18;;;;;;;16.98;1.65;;;9.80;99.90;;;;;;4974496;28;20110;-56
2022/12/26 00:09:44;;;;;;;10.23;1.83;;;9.70;99.90;;;;;;4965633;28;20070;-58
2022/12/26 00:12:11;;;;;;;13.82;2.58;;;9.70;99.90;;;;;;4961780;28;20078;-60
2022/12/26 00:14:39;;;;;;;6.53;1.40;;;9.70;99.90;;;;;;4962453;28;20046;-61
2022/12/26 00:17:05;;;;;;;7.75;2.00;;;9.70;99.90;;;;;;4961732;28;20046;-58
2022/12/26 00:19:32;;;;;;;15.27;1.80;;;9.80;99.90;;;;;;4982701;28;20461;-60
2022/12/26 00:21:59;;;;;;;16.10;2.88;;;9.80;99.90;;;;;;4962995;28;20053;-61
2022/12/26 00:24:26;;;;;;;13.18;2.20;;;9.80;99.90;;;;;;4979423;28;20053;-59
2022/12/26 00:26:52;;;;;;;10.30;1.83;;;9.80;99.90;;;;;;4980392;28;20051;-59
2022/12/26 00:29:19;;;;;;;18.20;2.38;;;9.80;99.90;;;;;;4980253;28;20546;-59
2022/12/26 00:31:46;;;;;;;17.48;3.85;;;9.80;99.90;;;;;;4963356;28;20081;-59
2022/12/26 00:34:13;;;;;;;19.08;3.25;;;9.80;99.90;;;;;;4980210;28;20389;-60
2022/12/26 00:36:40;;;;;;;9.15;1.92;;;9.80;99.90;;;;;;4964051;28;20299;-60
2022/12/26 00:39:07;;;;;;;20.33;2.35;;;9.80;99.90;;;;;;4980896;28;20053;-59
2022/12/26 00:41:33;;;;;;;21.63;3.42;;;9.80;99.90;;;;;;4981324;28;20126;-60
2022/12/26 00:44:00;;;;;;;17.38;3.72;;;9.80;99.90;;;;;;4978246;28;20108;-60
2022/12/26 00:46:27;;;;;;;13.90;1.80;;;9.80;99.90;;;;;;4978712;28;20442;-60
2022/12/26 00:48:54;;;;;;;25.23;6.32;;;9.80;99.90;;;;;;4979877;28;20066;-60
2022/12/26 00:51:21;;;;;;;17.65;2.25;;;9.90;99.90;;;;;;4978129;28;20066;-60
2022/12/26 00:53:47;;;;;;;12.07;2.90;;;9.90;99.90;;;;;;4977056;28;20078;-59
2022/12/26 00:56:14;;;;;;;22.27;2.75;;;9.90;99.90;;;;;;4960439;28;20486;-60
2022/12/26 00:58:41;;;;;;;17.95;2.45;;;9.90;99.90;;;;;;4977794;28;20146;-60
2022/12/26 01:01:13;;;;;;;17.52;2.45;;;9.90;99.90;;;;;;4959054;28;20481;-60
2022/12/26 01:03:40;;;;;;;11.35;1.70;;;10.00;99.90;;;;;;4973935;28;20043;-60
2022/12/26 01:06:07;;;;;;;17.55;2.35;;;10.00;99.90;;;;;;4977279;28;20134;-60
2022/12/26 01:08:34;;;;;;;14.90;4.72;;;10.00;99.90;;;;;;4960716;28;20196;-59
2022/12/26 01:11:05;;;;;;;13.93;2.50;;;10.00;99.90;;;;;;4978166;28;20110;-60
2022/12/26 01:13:32;;;;;;;13.80;2.28;;;9.90;99.90;;;;;;4974781;28;20050;-60
2022/12/26 01:15:59;;;;;;;23.65;4.38;;;10.00;99.90;;;;;;4965132;28;20556;-60
2022/12/26 01:18:26;;;;;;;22.67;4.13;;;10.00;99.90;;;;;;4982748;28;20058;-60
2022/12/26 01:21:00;;;;;;;22.67;2.90;;;10.00;99.90;;;;;;4966365;28;20058;-60
2022/12/26 01:23:27;;;;;;;;;;;10.00;99.90;;;;;;4983375;28;20046;-60
2022/12/26 01:25:53;;;;;;;14.48;2.58;;;10.00;99.90;;;;;;4985541;28;19964;-60
2022/12/26 01:28:40;;;;;;;13.40;2.75;;;10.10;99.90;;;;;;4983380;28;20057;-60
2022/12/26 01:31:07;;;;;;;28.13;4.07;;;10.10;99.90;;;;;;4984313;28;20047;-60
2022/12/26 01:33:34;;;;;;;14.52;2.97;;;10.00;99.90;;;;;;4968906;28;20070;-59
2022/12/26 01:36:00;;;;;;;19.77;2.65;;;10.10;99.90;;;;;;4986223;28;20065;-59
2022/12/26 01:38:27;;;;;;;20.10;2.67;;;10.10;99.90;;;;;;4985591;28;20047;-59
2022/12/26 01:43:50;;;;;;;14.55;2.40;;;10.10;99.90;;;;;;4986970;28;20055;-59
2022/12/26 01:46:18;;;;;;;21.13;2.53;;;10.10;99.90;;;;;;4987644;28;20102;-60
2022/12/26 01:48:45;;;;;;;12.35;2.08;;;10.10;99.90;;;;;;4969552;28;20058;-58
2022/12/26 01:51:12;;;;;;;12.23;1.70;;;10.10;99.90;;;;;;4969843;28;20137;-61
2022/12/26 01:53:44;;;;;;;17.30;2.33;;;10.20;99.90;;;;;;4967454;28;20074;-60
2022/12/26 01:56:21;;;;;;;13.13;2.10;;;10.20;99.90;;;;;;4968550;28;20078;-62
2022/12/26 01:58:54;;;;;;;18.42;3.22;;;10.20;99.90;;;;;;4968236;28;20054;-59
2022/12/26 02:01:20;;;;;;;10.82;1.70;;;10.20;99.90;;;;;;4968598;28;20046;-60
2022/12/26 02:06:33;;;;;;;13.43;1.98;;;10.30;99.90;;;;;;4986015;28;20141;-60
2022/12/26 02:09:00;;;;;;;13.57;2.42;;;10.30;99.90;;;;;;4984232;28;20682;-60
2022/12/26 02:11:38;;;;;;;18.40;2.13;;;10.30;99.90;;;;;;4608654;28;10000065;-60
2022/12/26 02:14:05;;;;;;;19.75;2.70;;;10.20;99.90;;;;;;4968381;28;20106;-60
2022/12/26 02:16:33;;;;;;;23.80;4.55;;;10.20;99.90;;;;;;4953135;28;20085;-60
2022/12/26 02:19:00;;;;;;;9.40;2.40;;;10.20;99.90;;;;;;4985193;28;20053;-60
2022/12/26 02:21:33;;;;;;;12.18;1.90;;;10.20;99.90;;;;;;4968527;28;20130;-60
2022/12/26 02:24:06;;;;;;;20.33;3.60;;;10.20;99.90;;;;;;4985462;28;20120;-60
2022/12/26 02:27:01;;;;;;;10.50;2.17;;;10.20;99.90;;;;;;4983372;28;20053;-60
2022/12/26 02:29:34;;;;;;;17.63;3.33;;;10.20;99.90;;;;;;4964278;28;20495;-60
2022/12/26 02:32:15;;;;;;;11.82;3.22;;;10.20;99.90;;;;;;4971023;28;20075;-60
2022/12/26 02:35:00;;;;;;;11.95;2.15;;;10.20;99.90;;;;;;4982763;28;20486;-60
2022/12/26 02:37:48;;;;;;;16.75;3.05;;;10.20;99.90;;;;;;4973718;28;20113;-60
2022/12/26 02:40:33;;;;;;;19.92;3.03;;;10.20;99.90;;;;;;4982828;28;20070;-61
2022/12/26 02:43:40;;;;;;;11.57;2.45;;;10.20;99.90;;;;;;4983007;28;20093;-60
2022/12/26 02:49:17;;;;;;;15.45;1.98;;;10.20;99.90;;;;;;4964188;29;20051;-60
2022/12/26 03:15:10;;;;;;;16.02;2.72;;;10.50;99.90;;;;;;4923871;29;20542;-61
2022/12/26 03:17:38;;;;;;;12.95;2.05;;;10.50;99.90;;;;;;4939443;29;20139;-60
2022/12/26 03:20:26;;;;;;;16.50;4.00;;;10.50;99.90;;;;;;4942540;29;20166;-59
2022/12/26 03:22:55;;;;;;;13.15;2.13;;;10.50;99.90;;;;;;4941398;29;20055;-60
2022/12/26 03:28:25;;;;;;;11.85;2.05;;;10.50;99.90;;;;;;4924915;29;20079;-60
2022/12/26 03:30:52;;;;;;;11.90;2.10;;;10.50;99.90;;;;;;4925587;29;20047;-60
2022/12/26 03:36:12;;;;;;;12.32;2.97;;;10.50;99.90;;;;;;4941959;29;20043;-60
2022/12/26 03:39:06;;;;;;;11.75;1.95;;;10.50;99.90;;;;;;4941329;29;20130;-60
2022/12/26 04:20:01;;;;;;;10.15;2.80;;;9.80;99.90;;;;;;4960890;29;20143;-60
2022/12/26 04:45:12;;;;;;;1.65;0.50;;;9.00;99.90;;;;;;4945860;29;20059;-60
2022/12/26 04:50:10;;;;;;;3.75;0.65;;;9.00;99.90;;;;;;4943357;29;20087;-60
2022/12/26 04:50:25;;;;;;;3.45;0.75;;;9.00;99.90;;;;;;4960682;28;20039;-60
2022/12/26 04:52:57;;;;;;;3.88;0.70;;;9.00;99.90;;;;;;4961137;29;20062;-59
2022/12/26 04:55:31;;;;;;;2.63;0.60;;;9.00;99.90;;;;;;4960514;29;20087;-60
2022/12/26 04:57:58;;;;;;;4.37;0.83;;;8.90;99.90;;;;;;4960903;29;20093;-60
2022/12/26 05:00:26;;;;;;;2.47;0.70;;;9.00;99.90;;;;;;4956501;29;20285;-59
2022/12/26 05:11:28;;;;;;;3.85;0.90;;;8.90;99.90;;;;;;4940127;29;20059;-59
2022/12/26 05:13:56;;;;;;;5.70;0.90;;;8.90;99.90;;;;;;4942349;29;20051;-60
2022/12/26 05:30:28;;;;;;;7.80;0.73;;;8.80;99.90;;;;;;4936836;29;20056;-60
2022/12/26 05:35:40;;;;;;;6.30;0.75;;;8.80;99.90;;;;;;4941947;29;20043;-59
2022/12/26 05:38:08;;;;;;;5.15;0.90;;;8.80;99.90;;;;;;4942686;29;20547;-59
2022/12/26 05:40:35;;;;;;;8.68;1.50;;;8.70;99.90;;;;;;4941354;29;20158;-60
2022/12/26 05:43:02;;;;;;;1.58;0.88;;;8.70;99.90;;;;;;4956932;29;20075;-60
2022/12/26 05:45:28;;;;;;;1.42;0.60;;;8.60;99.90;;;;;;4940979;29;20047;-61
2022/12/26 05:48:01;;;;;;;5.50;1.35;;;8.10;99.90;;;;;;4926863;29;20047;-58
2022/12/26 05:50:28;;;;;;;0.53;0.30;;;7.60;99.90;;;;;;4942326;29;20072;-59
2022/12/26 05:52:56;;;;;;;1.17;0.63;;;7.30;99.90;;;;;;4941925;29;20087;-58
2022/12/26 05:55:23;;;;;;;0.45;0.30;;;7.30;99.90;;;;;;4928484;29;20051;-59
2022/12/26 05:57:50;;;;;;;3.85;0.45;;;7.20;99.90;;;;;;4946174;29;20118;-59
2022/12/26 06:00:17;;;;;;;2.08;0.40;;;7.20;99.90;;;;;;4982692;28;20082;-59
2022/12/26 06:02:44;;;;;;;0.45;0.40;;;7.20;99.90;;;;;;4970964;28;20055;-60
2022/12/26 06:05:11;;;;;;;2.67;0.40;;;7.20;99.90;;;;;;4989850;28;20082;-59
2022/12/26 06:07:37;;;;;;;2.80;0.50;;;7.10;99.90;;;;;;4988949;28;20047;-59
2022/12/26 06:10:05;;;;;;;2.95;0.40;;;7.10;99.90;;;;;;4971552;28;20111;-60
2022/12/26 06:12:33;;;;;;;0.45;0.40;;;7.10;99.90;;;;;;4988132;28;20055;-60
2022/12/26 06:15:00;;;;;;;3.85;0.57;;;7.10;99.90;;;;;;4972941;28;20053;-61
2022/12/26 06:17:27;;;;;;;4.07;0.68;;;7.10;99.90;;;;;;4972063;28;20066;-59
2022/12/26 06:19:53;;;;;;;1.10;0.45;;;7.10;99.90;;;;;;4971986;28;20506;-59
2022/12/26 06:22:20;;;;;;;4.32;0.50;;;7.10;99.90;;;;;;4971841;28;20074;-59
2022/12/26 06:24:47;;;;;;;8.52;0.80;;;7.10;99.90;;;;;;4988736;28;20102;-59
2022/12/26 06:27:14;;;;;;;2.00;0.73;;;7.00;99.90;;;;;;4988694;28;20094;-58
2022/12/26 06:29:40;;;;;;;6.00;0.90;;;7.10;99.90;;;;;;4987258;28;20054;-59
2022/12/26 06:32:07;;;;;;;6.22;0.70;;;7.10;99.90;;;;;;4988475;28;20106;-59
2022/12/26 06:34:34;;;;;;;3.65;0.77;;;7.10;99.90;;;;;;4971312;28;20054;-60
2022/12/26 06:37:00;;;;;;;3.30;0.57;;;7.20;99.90;;;;;;4986131;28;20185;-60
2022/12/26 06:39:27;;;;;;;6.07;0.70;;;7.00;99.90;;;;;;4987390;28;20043;-59
2022/12/26 06:41:54;;;;;;;4.63;0.68;;;7.00;99.90;;;;;;4986095;28;20054;-59
2022/12/26 06:44:21;;;;;;;3.15;0.80;;;7.00;99.90;;;;;;4985073;28;20270;-59
2022/12/26 06:46:48;;;;;;;5.82;1.30;;;6.90;99.90;;;;;;4971139;28;20098;-60
2022/12/26 06:49:15;;;;;;;7.10;0.77;;;6.90;99.90;;;;;;4988542;28;20077;-59
2022/12/26 06:51:43;;;;;;;8.32;1.02;;;6.90;99.90;;;;;;4971474;28;20093;-60
2022/12/26 06:54:10;;;;;;;5.07;1.13;;;6.80;99.90;;;;;;4987686;28;20038;-61
2022/12/26 06:56:37;;;;;;;7.03;2.92;;;6.70;99.90;;;;;;4989066;28;20130;-58
2022/12/26 06:59:04;;;;;;;0.77;0.60;;;6.70;99.90;;;;;;4988909;28;20085;-61
2022/12/26 07:01:33;;;;;;;1.23;0.60;;;6.70;99.90;;;;;;4989402;28;20043;-59
2022/12/26 07:04:00;;;;;;;7.35;1.50;;;6.60;99.90;;;;;;4971371;28;20078;-60
2022/12/26 07:06:31;;;;;;;2.40;0.43;;;6.60;99.90;;;;;;4988906;28;20645;-60
2022/12/26 07:09:08;;;;;;;13.75;0.90;;;6.50;99.90;;;;;;4989885;28;20047;-59
2022/12/26 07:11:36;;;;;;;5.45;0.70;;;6.50;99.90;;;;;;4988882;28;20514;-59
2022/12/26 07:14:03;;;;;;;1.33;0.40;;;6.40;99.90;;;;;;4989484;28;20074;-58
2022/12/26 07:16:30;;;;;;;4.10;0.85;;;6.40;99.90;;;;;;4990487;28;20074;-58
2022/12/26 07:18:57;;;;;;;7.70;0.60;;;6.40;99.90;;;;;;4990342;28;20043;-59
2022/12/26 07:21:24;;;;;;;16.67;0.90;;;6.30;99.90;;;;;;4990622;28;20458;-59
2022/12/26 07:23:52;;;;;;;2.72;0.40;;;6.30;99.90;;;;;;4989515;28;20082;-59
2022/12/26 07:26:18;;;;;;;1.80;0.45;;;6.30;99.90;;;;;;4990016;28;20053;-59
2022/12/26 07:28:45;;;;;;;1.85;0.82;;;6.20;99.90;;;;;;4989451;28;20054;-59
2022/12/26 07:31:18;;;;;;;1.30;0.38;;;6.10;99.90;;;;;;4990062;28;20629;-59
2022/12/26 07:33:47;;;;;;;2.63;0.65;;;6.10;99.90;;;;;;4957634;28;20090;-58
2022/12/26 07:36:14;;;;;;;8.25;1.13;;;6.10;99.90;;;;;;4989454;28;20093;-59
2022/12/26 07:38:41;;;;;;;6.90;0.93;;;6.00;99.90;;;;;;4971926;28;20051;-59
2022/12/26 07:43:53;;;;;;;2.10;0.88;;;6.00;99.90;;;;;;4971356;29;20071;-61
2022/12/26 07:46:20;;;;;;;3.50;0.50;;;5.90;99.90;;;;;;4969303;28;20074;-61
2022/12/26 07:48:47;;;;;;;2.78;0.65;;;6.00;99.90;;;;;;4989965;28;20111;-60
2022/12/26 07:51:14;;;;;;;3.33;0.40;;;5.90;99.90;;;;;;4990122;28;20070;-60
2022/12/26 07:53:40;;;;;;;5.95;0.95;;;5.80;99.90;;;;;;4990724;28;20051;-60
2022/12/26 07:56:07;;;;;;;3.28;0.85;;;5.80;99.90;;;;;;4989471;28;20177;-59
2022/12/26 07:58:34;;;;;;;8.48;0.85;;;5.70;99.90;;;;;;4973398;28;20081;-60
2022/12/26 08:01:02;;;;;;;5.18;1.00;;;5.70;99.90;;;;;;4990199;28;20070;-61
2022/12/26 08:03:28;;;;;;;7.32;1.20;;;5.70;99.90;;;;;;4974412;28;20054;-59
2022/12/26 08:05:55;;;;;;;8.18;0.85;;;5.70;99.90;;;;;;4972789;28;20039;-59
2022/12/26 08:08:22;;;;;;;4.63;1.08;;;5.80;99.90;;;;;;4974160;28;20077;-59
2022/12/26 08:11:00;;;;;;;5.45;0.88;;;5.60;99.90;;;;;;4972219;28;20552;-59
2022/12/26 08:13:28;;;;;;;5.40;0.90;;;5.60;99.90;;;;;;4980820;28;20042;-58
2022/12/26 08:15:55;;;;;;;8.05;1.08;;;5.60;99.90;;;;;;4990959;28;20202;-61
2022/12/26 08:18:23;;;;;;;8.77;1.02;;;5.60;99.90;;;;;;4973393;28;20054;-60
2022/12/26 08:20:50;;;;;;;11.45;1.42;;;5.60;99.90;;;;;;4990712;28;20124;-60
2022/12/26 08:23:17;;;;;;;7.05;2.15;;;5.50;99.90;;;;;;4990533;28;20050;-60
2022/12/26 08:25:44;;;;;;;4.88;1.70;;;5.60;99.90;;;;;;4989683;28;20061;-60
2022/12/26 08:28:10;;;;;;;5.43;0.88;;;5.50;99.90;;;;;;4988977;28;20057;-59
2022/12/26 08:30:40;;;;;;;8.23;0.85;;;5.50;99.90;;;;;;4974047;28;20126;-60
2022/12/26 08:33:07;;;;;;;5.32;0.93;;;5.40;99.90;;;;;;4990618;28;20563;-60
2022/12/26 08:35:35;;;;;;;10.25;1.17;;;5.40;99.90;;;;;;4990763;28;20058;-59
2022/12/26 08:38:02;;;;;;;4.30;2.45;;;5.40;99.90;;;;;;4973406;28;20078;-59
2022/12/26 08:40:28;;;;;;;8.90;2.80;;;5.40;99.90;;;;;;4989151;28;20093;-61
2022/12/26 08:43:09;;;;;;;3.28;1.52;;;5.40;99.90;;;;;;4990517;28;20065;-59
2022/12/26 08:46:06;;;;;;;6.93;0.80;;;5.40;99.90;;;;;;4971066;29;20042;-59
2022/12/26 08:48:33;;;;;;;4.00;0.90;;;5.40;99.90;;;;;;4991339;28;20061;-59
2022/12/26 08:51:02;;;;;;;8.07;2.05;;;5.40;99.90;;;;;;4991420;28;20050;-60
2022/12/26 08:53:31;;;;;;;7.57;1.58;;;5.50;99.90;;;;;;4987334;28;20058;-60
2022/12/26 08:55:58;;;;;;;5.45;1.25;;;5.50;99.90;;;;;;4993908;28;20074;-59
2022/12/26 08:58:25;;;;;;;7.43;1.20;;;5.50;99.90;;;;;;4993148;28;20045;-59
2022/12/26 09:00:52;;;;;;;14.32;2.15;;;5.50;99.90;;;;;;4977003;28;20055;-59
2022/12/26 09:03:21;;;;;;;7.22;1.00;;;5.50;99.90;;;;;;4993164;28;20101;-59
2022/12/26 09:05:48;;;;;;;14.73;3.25;;;5.50;99.90;;;;;;4993152;28;20057;-59
2022/12/26 09:08:15;;;;;;;5.57;0.90;;;5.50;99.90;;;;;;4976378;28;20042;-59
2022/12/26 09:10:41;;;;;;;5.47;1.25;;;5.50;99.90;;;;;;4993090;28;20138;-59
2022/12/26 09:13:08;;;;;;;3.28;1.25;;;5.50;99.90;;;;;;4992889;28;20074;-59
2022/12/26 09:15:35;;;;;;;6.07;2.00;;;5.50;99.90;;;;;;4993386;28;20038;-59
2022/12/26 09:18:02;;;;;;;3.42;0.85;;;5.50;99.90;;;;;;4977121;28;20047;-59
2022/12/26 09:20:28;;;;;;;5.82;1.17;;;5.50;99.90;;;;;;4994015;28;20087;-59
2022/12/26 09:22:55;;;;;;;6.28;1.35;;;5.50;99.90;;;;;;4976566;28;20050;-59
2022/12/26 09:25:23;;;;;;;3.38;0.90;;;5.60;99.90;;;;;;4992921;28;20039;-60
2022/12/26 09:27:52;;;;;;;5.90;2.15;;;5.60;99.90;;;;;;4975926;28;20045;-60
2022/12/26 09:30:25;;;;;;;3.38;1.00;;;5.60;99.90;;;;;;4991968;28;20059;-60
2022/12/26 09:32:52;;;;;;;8.68;1.10;;;5.60;99.90;;;;;;4993416;28;20034;-59
2022/12/26 09:35:19;;;;;;;1.88;0.60;;;5.70;99.90;;;;;;4976963;28;20043;-61
2022/12/26 09:37:46;;;;;;;1.85;0.52;;;5.70;99.90;;;;;;4997832;28;20187;-60
2022/12/26 09:40:22;;;;;;;5.30;1.13;;;5.70;99.90;;;;;;4997568;28;20050;-60
2022/12/26 09:42:58;;;;;;;3.00;0.70;;;5.80;99.90;;;;;;4964874;28;20142;-59
2022/12/26 09:45:47;;;;;;;4.95;1.88;;;5.80;99.90;;;;;;4965160;28;20054;-59
2022/12/26 09:48:24;;;;;;;3.90;0.82;;;5.90;99.90;;;;;;4996790;28;20039;-59
2022/12/26 09:50:51;;;;;;;3.25;0.80;;;5.90;99.90;;;;;;4979899;28;20171;-61
2022/12/26 09:53:27;;;;;;;1.65;0.73;;;5.90;99.90;;;;;;4980149;28;20058;-59
2022/12/26 09:56:06;;;;;;;4.38;0.65;;;6.00;99.90;;;;;;4980148;28;20035;-59
2022/12/26 09:58:45;;;;;;;6.65;1.40;;;6.00;99.90;;;;;;4981163;28;20043;-60
2022/12/26 10:01:15;;;;;;;2.97;0.63;;;6.10;99.90;;;;;;4981041;28;20070;-60
2022/12/26 10:03:45;;;;;;;7.63;1.02;;;6.20;99.90;;;;;;4997506;28;20114;-60
2022/12/26 10:06:13;;;;;;;10.48;0.85;;;6.20;99.90;;;;;;4978849;28;20119;-59
2022/12/26 10:08:56;;;;;;;3.53;0.50;;;6.10;99.90;;;;;;4980774;28;20038;-60
2022/12/26 10:11:41;;;;;;;3.45;0.68;;;6.10;99.90;;;;;;4979179;28;20259;-59
2022/12/26 10:14:11;;;;;;;2.40;0.80;;;6.20;99.90;;;;;;4997394;28;20078;-61
2022/12/26 10:17:01;;;;;;;8.48;0.70;;;6.20;99.90;;;;;;4990197;28;20042;-60
2022/12/26 10:19:41;;;;;;;2.33;1.00;;;6.20;99.90;;;;;;4979414;28;20042;-60
2022/12/26 10:22:33;;;;;;;1.85;0.57;;;6.30;99.90;;;;;;4965290;28;20244;-60
2022/12/26 10:25:00;;;;;;;3.92;0.70;;;6.10;99.90;;;;;;4996474;28;20047;-60
2022/12/26 10:27:28;;;;;;;5.00;0.80;;;6.30;99.90;;;;;;4963094;28;20099;-59
2022/12/26 10:29:58;;;;;;;1.95;0.70;;;6.30;99.90;;;;;;4963396;28;20082;-59
2022/12/26 10:32:29;;;;;;;3.13;0.65;;;6.30;99.90;;;;;;4962658;28;20051;-59
2022/12/26 10:34:56;;;;;;;0.93;0.40;;;6.50;99.90;;;;;;4963936;28;20054;-60
2022/12/26 10:37:37;;;;;;;7.63;0.80;;;6.40;99.90;;;;;;4996129;28;20055;-59
2022/12/26 10:40:15;;;;;;;1.33;0.50;;;6.40;99.90;;;;;;4980710;28;20050;-59
2022/12/26 10:42:44;;;;;;;3.17;0.98;;;6.40;99.90;;;;;;4996536;28;20228;-60
2022/12/26 10:45:15;;;;;;;3.00;0.85;;;6.50;99.90;;;;;;4979347;28;20043;-62
2022/12/26 10:47:44;;;;;;;2.80;0.85;;;6.50;99.90;;;;;;4978371;28;20043;-60
2022/12/26 10:50:16;;;;;;;1.30;0.50;;;6.50;99.90;;;;;;4979713;28;20030;-60
2022/12/26 10:52:46;;;;;;;4.18;0.80;;;6.60;99.90;;;;;;4964718;28;20045;-60
2022/12/26 10:55:15;;;;;;;7.30;1.35;;;6.40;99.90;;;;;;4996260;28;20043;-60
2022/12/26 10:57:55;;;;;;;3.72;1.05;;;6.60;99.90;;;;;;4981384;28;20328;-60
2022/12/26 11:00:24;;;;;;;1.85;0.70;;;6.60;99.90;;;;;;4958324;29;20036;-59
2022/12/26 11:03:12;;;;;;;1.92;0.90;;;6.60;99.90;;;;;;4957951;29;20063;-59
2022/12/26 11:05:50;;;;;;;3.40;1.00;;;6.70;99.90;;;;;;4958116;29;20063;-59
2022/12/26 11:08:48;;;;;;;6.80;1.25;;;6.60;99.90;;;;;;4958795;29;20323;-60
2022/12/26 11:11:44;;;;;;;5.05;0.98;;;6.70;99.90;;;;;;4957937;29;20044;-60
2022/12/26 11:14:25;;;;;;;9.05;2.00;;;6.70;99.90;;;;;;4944227;29;20043;-60
2022/12/26 11:17:02;;;;;;;5.13;1.27;;;6.70;99.90;;;;;;4957088;29;20035;-60
2022/12/26 11:19:31;;;;;;;4.30;1.48;;;6.60;99.90;;;;;;4957360;29;20047;-60
2022/12/26 11:22:20;;;;;;;6.47;1.27;;;6.60;99.90;;;;;;4957698;29;20055;-60
2022/12/26 11:25:22;;;;;;;8.60;0.98;;;6.70;99.90;;;;;;4948553;29;20042;-59
2022/12/26 11:27:50;;;;;;;5.25;1.17;;;6.70;99.90;;;;;;4925467;29;20066;-62
2022/12/26 11:30:20;;;;;;;5.72;0.85;;;6.70;99.90;;;;;;4958151;29;20036;-61
2022/12/26 11:33:20;;;;;;;10.10;1.63;;;6.70;99.90;;;;;;4957780;29;20027;-59
2022/12/26 11:36:15;;;;;;;4.57;1.08;;;6.80;99.90;;;;;;4957458;29;20044;-59
2022/12/26 11:38:51;;;;;;;3.88;1.00;;;6.80;99.90;;;;;;4957722;29;20051;-62
2022/12/26 11:41:31;;;;;;;10.88;1.77;;;6.80;99.90;;;;;;4957930;29;20055;-60
2022/12/26 11:44:22;;;;;;;3.88;0.80;;;6.90;99.90;;;;;;4956727;29;20119;-60
2022/12/26 11:46:55;;;;;;;6.63;2.78;;;6.90;99.90;;;;;;4936412;29;20060;-60
2022/12/26 11:49:28;;;;;;;5.57;1.57;;;7.00;99.90;;;;;;4953005;29;20209;-59
2022/12/26 11:51:56;;;;;;;5.63;1.13;;;7.00;99.90;;;;;;4939398;29;20064;-61
2022/12/26 11:54:32;;;;;;;9.23;1.65;;;7.00;99.90;;;;;;4953016;29;20053;-60
2022/12/26 11:57:01;;;;;;;7.65;1.45;;;7.10;99.90;;;;;;4958235;29;20042;-60
2022/12/26 11:59:28;;;;;;;10.35;1.17;;;7.10;99.90;;;;;;4958840;28;20075;-60
2022/12/26 12:02:28;;;;;;;11.77;2.60;;;7.20;99.90;;;;;;4942087;29;20027;-60
2022/12/26 12:05:01;;;;;;;6.57;1.75;;;7.20;99.90;;;;;;4972961;28;20046;-59
2022/12/26 12:07:36;;;;;;;10.15;3.38;;;7.20;99.90;;;;;;4938761;29;20100;-59
2022/12/26 12:10:19;;;;;;;6.93;1.40;;;7.20;99.90;;;;;;4957523;29;20055;-59
2022/12/26 12:13:10;;;;;;;10.18;1.60;;;7.30;99.90;;;;;;4938740;29;20044;-59
2022/12/26 12:15:58;;;;;;;4.55;1.13;;;7.30;99.90;;;;;;4956994;29;20059;-60
2022/12/26 12:18:32;;;;;;;6.43;1.27;;;7.30;99.90;;;;;;4941432;29;20044;-60
2022/12/26 12:21:21;;;;;;;9.35;1.20;;;7.30;99.90;;;;;;4962969;29;20063;-61
2022/12/26 12:24:18;;;;;;;7.60;1.10;;;7.30;99.90;;;;;;4976031;29;20068;-60
2022/12/26 12:27:12;;;;;;;4.93;1.30;;;7.40;99.90;;;;;;4968019;29;20063;-61
2022/12/26 12:29:44;;;;;;;5.90;1.17;;;7.40;99.90;;;;;;4960570;29;20070;-61
2022/12/26 12:32:21;;;;;;;10.48;1.00;;;7.30;99.90;;;;;;4968307;29;20063;-62
2022/12/26 12:35:00;;;;;;;4.20;0.95;;;7.30;99.90;;;;;;4971536;28;20047;-59
2022/12/26 12:37:52;;;;;;;5.45;0.90;;;7.40;99.90;;;;;;4948845;28;20039;-60
2022/12/26 12:40:30;;;;;;;4.95;1.13;;;7.40;99.90;;;;;;4961370;29;20051;-60
2022/12/26 12:42:59;;;;;;;7.00;0.82;;;7.40;99.90;;;;;;4971058;29;20032;-60
2022/12/26 12:45:44;;;;;;;10.38;1.33;;;7.50;99.90;;;;;;4972341;29;20078;-59
2022/12/26 12:48:18;;;;;;;4.15;1.08;;;7.40;99.90;;;;;;4946865;29;20298;-60
2022/12/26 12:51:28;;;;;;;4.13;1.10;;;7.50;99.90;;;;;;4960625;29;20043;-60
2022/12/26 12:53:58;;;;;;;7.45;1.77;;;7.40;99.90;;;;;;4975511;29;20042;-59
2022/12/26 12:56:43;;;;;;;6.32;1.20;;;7.40;99.90;;;;;;4972302;29;20241;-58
2022/12/26 12:59:21;;;;;;;9.60;1.20;;;7.40;99.90;;;;;;4955247;29;20098;-61
2022/12/26 13:01:50;;;;;;;7.82;1.30;;;7.50;99.90;;;;;;4991443;28;20077;-61
2022/12/26 13:04:37;;;;;;;7.03;1.45;;;7.50;99.90;;;;;;4963345;28;20035;-60
2022/12/26 13:07:08;;;;;;;3.45;1.02;;;7.60;99.90;;;;;;4962971;28;20193;-61
2022/12/26 13:09:44;;;;;;;3.85;1.55;;;7.60;99.90;;;;;;4944613;28;20046;-60
2022/12/26 13:12:21;;;;;;;6.78;1.38;;;7.60;99.90;;;;;;4978943;28;20053;-59
2022/12/26 13:14:53;;;;;;;10.50;1.50;;;7.70;99.90;;;;;;4944856;29;20055;-61
2022/12/26 13:17:22;;;;;;;7.38;1.45;;;7.70;99.90;;;;;;4978823;28;20026;-60
2022/12/26 13:20:18;;;;;;;12.38;2.25;;;7.70;99.90;;;;;;4959758;29;20253;-60
2022/12/26 13:25:43;;;;;;;14.07;1.70;;;7.70;99.90;;;;;;4995729;28;20062;-60
2022/12/26 13:28:22;;;;;;;4.78;0.90;;;7.80;99.90;;;;;;4962622;28;20078;-59
2022/12/26 13:30:53;;;;;;;3.67;1.52;;;7.80;99.90;;;;;;4978901;28;20058;-60
2022/12/26 13:33:19;;;;;;;4.45;1.45;;;7.70;99.90;;;;;;4978543;28;20099;-60
2022/12/26 13:35:54;;;;;;;4.82;1.23;;;7.70;99.90;;;;;;4962951;28;20051;-60
2022/12/26 13:38:21;;;;;;;5.50;1.00;;;7.70;99.90;;;;;;4995341;28;20034;-60
2022/12/26 13:43:53;;;;;;;6.30;1.30;;;7.70;99.90;;;;;;4978720;28;20038;-62
2022/12/26 13:44:19;;;;;;;4.20;1.17;;;7.70;99.90;;;;;;4968477;28;20047;-60
2022/12/26 13:46:46;;;;;;;6.30;1.85;;;7.70;99.90;;;;;;4934812;29;20044;-61
2022/12/26 13:49:27;;;;;;;7.65;1.77;;;7.70;99.90;;;;;;4981397;28;20050;-60
2022/12/26 13:52:18;;;;;;;6.65;1.20;;;7.70;99.90;;;;;;4994965;28;20053;-60
2022/12/26 13:54:49;;;;;;;13.85;1.23;;;7.70;99.90;;;;;;4959420;28;20047;-59
2022/12/26 13:57:24;;;;;;;5.65;1.00;;;7.70;99.90;;;;;;4995290;28;20058;-61
2022/12/26 14:00:10;;;;;;;8.00;1.20;;;7.70;99.90;;;;;;4994809;28;20042;-60
2022/12/26 14:03:02;;;;;;;7.70;1.05;;;7.70;99.90;;;;;;4994701;28;20046;-59
2022/12/26 14:06:24;;;;;;;6.22;0.98;;;7.70;99.90;;;;;;4961850;28;20047;-60
2022/12/26 14:09:09;;;;;;;8.07;3.10;;;7.70;99.90;;;;;;4989125;28;20070;-61
2022/12/26 14:11:44;;;;;;;4.45;0.95;;;7.70;99.90;;;;;;4959300;29;20055;-58
2022/12/26 14:14:40;;;;;;;3.13;0.85;;;7.60;99.90;;;;;;4978078;28;20340;-60
2022/12/26 14:17:32;;;;;;;6.25;1.20;;;7.60;99.90;;;;;;4974300;29;20035;-61
2022/12/26 14:20:25;;;;;;;4.32;1.10;;;7.60;99.90;;;;;;4993954;28;20031;-60
2022/12/26 14:23:32;;;;;;;4.32;1.05;;;7.60;99.90;;;;;;4996089;28;20050;-61
2022/12/26 14:26:30;;;;;;;10.32;1.75;;;7.60;99.90;;;;;;4993490;28;20054;-59
2022/12/26 14:29:46;;;;;;;5.43;1.08;;;7.60;99.90;;;;;;4997691;28;20034;-59
2022/12/26 14:32:27;;;;;;;8.00;1.17;;;7.50;99.90;;;;;;4930673;28;20064;-59
2022/12/26 14:35:06;;;;;;;9.88;1.65;;;7.50;99.90;;;;;;4997867;28;20045;-61
2022/12/26 14:37:51;;;;;;;6.38;1.60;;;7.50;99.90;;;;;;4998255;28;20031;-61
2022/12/26 14:40:30;;;;;;;6.90;1.33;;;7.50;99.90;;;;;;4981495;28;20069;-60
2022/12/26 14:43:12;;;;;;;6.30;1.10;;;7.40;99.90;;;;;;4981688;28;20099;-61
2022/12/26 14:45:41;;;;;;;6.50;1.90;;;7.40;99.90;;;;;;4997785;28;20070;-60
2022/12/26 14:48:14;;;;;;;4.70;1.35;;;7.40;99.90;;;;;;4998196;28;20050;-61
2022/12/26 14:50:54;;;;;;;8.95;1.70;;;7.30;99.90;;;;;;4997996;28;20277;-61
2022/12/26 14:53:26;;;;;;;15.00;2.50;;;7.30;99.90;;;;;;4981727;28;20046;-59
2022/12/26 14:55:57;;;;;;;7.82;1.42;;;7.30;99.90;;;;;;4998050;28;20042;-61
2022/12/26 14:58:43;;;;;;;6.40;1.20;;;7.30;99.90;;;;;;4965484;28;20042;-62
2022/12/26 15:01:14;;;;;;;6.57;1.42;;;7.30;99.90;;;;;;4997737;28;20030;-61
2022/12/26 15:04:13;;;;;;;4.95;1.33;;;7.30;99.90;;;;;;4998042;28;20038;-60
2022/12/26 15:06:52;;;;;;;6.05;1.67;;;7.30;99.90;;;;;;4977880;28;20038;-60
2022/12/26 15:09:40;;;;;;;6.95;1.52;;;7.30;99.90;;;;;;4981052;28;20129;-60
2022/12/26 15:12:29;;;;;;;10.60;1.55;;;7.30;99.90;;;;;;4996565;28;20035;-60
2022/12/26 15:15:18;;;;;;;8.65;1.52;;;7.20;99.90;;;;;;4980771;28;20103;-60
2022/12/26 15:18:12;;;;;;;12.52;1.65;;;7.20;99.90;;;;;;4989373;28;20498;-60
2022/12/26 15:20:58;;;;;;;12.15;3.05;;;7.20;99.90;;;;;;4980467;28;20085;-60
2022/12/26 15:23:58;;;;;;;4.57;1.90;;;7.20;99.90;;;;;;4983038;28;20041;-59
2022/12/26 15:26:50;;;;;;;9.32;2.45;;;7.20;99.90;;;;;;4980809;28;20030;-60
2022/12/26 15:29:16;;;;;;;10.30;3.45;;;7.20;99.90;;;;;;4977930;29;20073;-60
2022/12/26 15:32:31;;;;;;;6.93;1.73;;;7.10;99.90;;;;;;4993102;28;20062;-61
2022/12/26 15:35:32;;;;;;;6.65;1.55;;;7.10;99.90;;;;;;4965252;29;20552;-61
2022/12/26 15:38:06;;;;;;;5.75;1.25;;;7.00;99.90;;;;;;4990548;28;20073;-60
2022/12/26 15:41:04;;;;;;;11.57;1.85;;;7.00;99.90;;;;;;4965183;28;20039;-61